Time;durP1;ratioP1;P1;durP2;ratioP2;P2;SDS_P1;SDS_P2;PMS_P1;PMS_P2;Temp;Humidity;BMP_temperature;BMP_pressure;BME280_temperature;BME280_humidity;BME280_pressure;Samples;Min_cycle;Max_cycle;Signal;HPM_P1;HPM_P2
2022/01/08 00:00:20;;;;;;;;;0.00;0.00;;;;;;;;6268699;22;28378;-84
2022/01/08 00:02:45;;;;;;;;;2.00;0.25;;;;;;;;6265746;22;44779;-83
2022/01/08 00:05:11;;;;;;;;;2.00;0.00;;;;;;;;6289820;22;45666;-83
2022/01/08 00:07:36;;;;;;;;;1.00;0.00;;;;;;;;6294512;22;28605;-84
2022/01/08 00:10:02;;;;;;;;;0.50;0.00;;;;;;;;6265856;22;28507;-84
2022/01/08 00:12:27;;;;;;;;;0.00;0.00;;;;;;;;6294353;22;28452;-84
2022/01/08 00:14:53;;;;;;;;;0.00;0.00;;;;;;;;6295033;22;28517;-84
2022/01/08 00:17:19;;;;;;;;;0.00;0.00;;;;;;;;6297086;22;28410;-84
2022/01/08 00:19:44;;;;;;;;;0.00;0.00;;;;;;;;6294232;22;28294;-83
2022/01/08 00:22:11;;;;;;;;;1.25;0.00;;;;;;;;6269511;22;29933;-83
2022/01/08 00:24:36;;;;;;;;;0.00;0.00;;;;;;;;6296151;22;28211;-83
2022/01/08 00:27:01;;;;;;;;;1.50;0.00;;;;;;;;6297150;22;28189;-81
2022/01/08 00:29:27;;;;;;;;;0.00;0.00;;;;;;;;6297081;22;28153;-81
2022/01/08 00:31:52;;;;;;;;;0.00;0.00;;;;;;;;6296063;22;29077;-82
2022/01/08 00:34:17;;;;;;;;;1.00;0.00;;;;;;;;6268505;22;28797;-82
2022/01/08 00:36:42;;;;;;;;;0.00;0.00;;;;;;;;6295530;22;28390;-83
2022/01/08 00:39:08;;;;;;;;;0.00;0.00;;;;;;;;6296998;22;28457;-83
2022/01/08 00:41:33;;;;;;;;;0.00;0.00;;;;;;;;6297294;22;28469;-83
2022/01/08 00:43:58;;;;;;;;;0.00;0.00;;;;;;;;6298085;22;28293;-82
2022/01/08 00:46:23;;;;;;;;;2.75;0.00;;;;;;;;6298825;22;28267;-80
2022/01/08 00:48:49;;;;;;;;;3.00;0.00;;;;;;;;6269801;22;28617;-81
2022/01/08 00:51:14;;;;;;;;;0.25;0.00;;;;;;;;6297662;22;28539;-81
2022/01/08 00:53:39;;;;;;;;;0.00;0.00;;;;;;;;6298174;22;28385;-80
2022/01/08 00:56:05;;;;;;;;;3.00;0.00;;;;;;;;6298774;22;28483;-81
2022/01/08 00:58:30;;;;;;;;;0.00;0.00;;;;;;;;6270043;22;29334;-81
2022/01/08 01:00:56;;;;;;;;;0.00;0.00;;;;;;;;6298187;22;28484;-80
2022/01/08 01:03:21;;;;;;;;;1.00;1.00;;;;;;;;6298258;22;28418;-80
2022/01/08 01:05:46;;;;;;;;;2.75;0.00;;;;;;;;6298953;22;28480;-81
2022/01/08 01:08:12;;;;;;;;;3.00;0.00;;;;;;;;6269831;22;28461;-81
2022/01/08 01:10:37;;;;;;;;;0.50;0.00;;;;;;;;6298498;22;28459;-81
2022/01/08 01:13:02;;;;;;;;;0.00;0.00;;;;;;;;6270746;22;28549;-81
2022/01/08 01:15:28;;;;;;;;;0.00;0.00;;;;;;;;6271306;22;28787;-81
2022/01/08 01:17:53;;;;;;;;;0.00;0.00;;;;;;;;6298395;22;28251;-81
2022/01/08 01:20:20;;;;;;;;;2.00;0.50;;;;;;;;6270825;22;29853;-81
2022/01/08 01:25:22;;;;;;;;;0.25;0.25;;;;;;;;6298722;22;28310;-81
2022/01/08 01:28:04;;;;;;;;;2.00;0.00;;;;;;;;6298340;22;28308;-81
2022/01/08 01:41:33;;;;;;;;;0.00;0.00;;;;;;;;6295951;22;28705;-80
2022/01/08 01:49:14;;;;;;;;;0.00;0.00;;;;;;;;6298192;22;28239;-81
2022/01/08 01:51:39;;;;;;;;;1.00;1.00;;;;;;;;6298295;22;28257;-81
2022/01/08 01:54:04;;;;;;;;;1.50;0.00;;;;;;;;6298130;22;28321;-81
2022/01/08 01:56:30;;;;;;;;;2.25;0.00;;;;;;;;6298784;22;28267;-81
2022/01/08 01:58:58;;;;;;;;;1.25;0.00;;;;;;;;6269688;22;28448;-80
2022/01/08 02:01:23;;;;;;;;;0.00;0.00;;;;;;;;6270401;22;29976;-80
2022/01/08 02:03:48;;;;;;;;;0.00;0.00;;;;;;;;6298487;22;28571;-80
2022/01/08 02:06:14;;;;;;;;;1.00;1.00;;;;;;;;6298663;22;28343;-81
2022/01/08 02:08:39;;;;;;;;;2.00;0.25;;;;;;;;6296221;22;28352;-81
2022/01/08 02:11:06;;;;;;;;;4.00;1.75;;;;;;;;6296608;22;28436;-81
2022/01/08 02:13:32;;;;;;;;;7.50;0.50;;;;;;;;6298519;22;28349;-81
2022/01/08 02:16:00;;;;;;;;;2.00;0.00;;;;;;;;6298630;22;28434;-81
2022/01/08 02:18:25;;;;;;;;;0.00;0.00;;;;;;;;6297778;22;28348;-81
2022/01/08 02:20:51;;;;;;;;;2.00;1.00;;;;;;;;6270566;22;29794;-81
2022/01/08 02:23:17;;;;;;;;;3.50;0.50;;;;;;;;6270398;22;28326;-81
2022/01/08 02:25:42;;;;;;;;;2.00;1.00;;;;;;;;6298625;22;28691;-81
2022/01/08 02:28:07;;;;;;;;;1.25;0.50;;;;;;;;6297903;22;28311;-81
2022/01/08 02:30:33;;;;;;;;;2.00;1.00;;;;;;;;6298196;22;29424;-80
2022/01/08 02:32:58;;;;;;;;;1.75;0.00;;;;;;;;6298018;22;28213;-81
2022/01/08 02:35:24;;;;;;;;;0.25;0.25;;;;;;;;6298457;22;28504;-81
2022/01/08 02:37:50;;;;;;;;;0.00;0.00;;;;;;;;6268738;22;28483;-80
2022/01/08 02:40:16;;;;;;;;;1.00;1.00;;;;;;;;6297902;22;28276;-81
2022/01/08 02:42:50;;;;;;;;;2.00;0.00;;;;;;;;6270481;22;28407;-81
2022/01/08 02:45:17;;;;;;;;;0.50;0.50;;;;;;;;6297192;22;28424;-81
2022/01/08 02:47:42;;;;;;;;;1.00;0.50;;;;;;;;6297268;22;28274;-80
2022/01/08 02:50:08;;;;;;;;;1.75;0.00;;;;;;;;6297590;22;28250;-81
2022/01/08 02:52:33;;;;;;;;;0.00;0.00;;;;;;;;6296511;22;28399;-80
2022/01/08 02:54:59;;;;;;;;;1.00;0.00;;;;;;;;6296809;22;28189;-81
2022/01/08 02:57:24;;;;;;;;;1.00;0.00;;;;;;;;6296885;22;28240;-80
2022/01/08 02:59:49;;;;;;;;;0.00;0.00;;;;;;;;6268303;22;30793;-81
2022/01/08 03:02:15;;;;;;;;;0.00;0.00;;;;;;;;6295967;22;28315;-81
2022/01/08 03:04:40;;;;;;;;;0.00;0.00;;;;;;;;6297129;22;28323;-81
2022/01/08 03:07:05;;;;;;;;;0.00;0.00;;;;;;;;6298068;22;28225;-80
2022/01/08 03:09:34;;;;;;;;;0.00;0.00;;;;;;;;6270479;22;30234;-81
2022/01/08 03:11:59;;;;;;;;;0.00;0.00;;;;;;;;6297637;22;28433;-81
2022/01/08 03:14:25;;;;;;;;;1.33;0.00;;;;;;;;6269805;22;28426;-80
2022/01/08 03:16:50;;;;;;;;;0.00;0.00;;;;;;;;6299346;22;28356;-80
2022/01/08 03:19:15;;;;;;;;;0.00;0.00;;;;;;;;6299909;22;29400;-80
2022/01/08 03:21:44;;;;;;;;;0.00;0.00;;;;;;;;6271091;22;28389;-80
2022/01/08 03:24:13;;;;;;;;;0.00;0.00;;;;;;;;6300435;22;28338;-81
2022/01/08 03:26:39;;;;;;;;;1.00;0.00;;;;;;;;6273723;22;28506;-80
2022/01/08 03:29:04;;;;;;;;;0.00;0.00;;;;;;;;6273413;22;28339;-80
2022/01/08 03:31:29;;;;;;;;;2.25;0.00;;;;;;;;6300001;22;28364;-81
2022/01/08 03:33:55;;;;;;;;;0.75;0.00;;;;;;;;6300492;22;28520;-80
2022/01/08 03:36:21;;;;;;;;;1.00;0.00;;;;;;;;6272840;22;28355;-80
2022/01/08 03:38:47;;;;;;;;;0.50;0.00;;;;;;;;6298117;22;28414;-80
2022/01/08 03:41:12;;;;;;;;;0.00;0.00;;;;;;;;6298338;22;28331;-81
2022/01/08 03:43:37;;;;;;;;;3.00;1.00;;;;;;;;6297527;22;28355;-81
2022/01/08 03:46:04;;;;;;;;;0.25;0.25;;;;;;;;6297643;22;28822;-80
2022/01/08 03:48:42;;;;;;;;;2.25;0.00;;;;;;;;6297232;22;29542;-81
2022/01/08 03:51:08;;;;;;;;;0.00;0.00;;;;;;;;6298029;22;28511;-81
2022/01/08 03:53:33;;;;;;;;;3.00;0.00;;;;;;;;6297509;22;28475;-80
2022/01/08 03:55:58;;;;;;;;;0.00;0.00;;;;;;;;6297881;22;28287;-81
2022/01/08 03:58:25;;;;;;;;;0.00;0.00;;;;;;;;6244682;22;1215411;-81
2022/01/08 04:00:50;;;;;;;;;0.25;0.00;;;;;;;;6299724;22;28328;-80
2022/01/08 04:03:18;;;;;;;;;2.00;0.33;;;;;;;;6298610;22;28448;-81
2022/01/08 04:05:45;;;;;;;;;1.00;1.00;;;;;;;;6298939;22;28204;-81
2022/01/08 04:08:10;;;;;;;;;0.00;0.00;;;;;;;;6298322;22;29314;-81
2022/01/08 04:10:36;;;;;;;;;2.00;0.00;;;;;;;;6299170;22;28375;-81
2022/01/08 04:13:08;;;;;;;;;1.00;0.00;;;;;;;;6298294;22;28330;-80
2022/01/08 04:15:37;;;;;;;;;1.75;0.00;;;;;;;;6298571;22;28360;-81
2022/01/08 04:18:03;;;;;;;;;0.00;0.00;;;;;;;;6297578;22;29375;-81
2022/01/08 04:20:28;;;;;;;;;0.50;0.50;;;;;;;;6298573;22;28335;-81
2022/01/08 04:22:53;;;;;;;;;0.50;0.00;;;;;;;;6299328;22;28211;-81
2022/01/08 04:25:19;;;;;;;;;0.00;0.00;;;;;;;;6298402;22;28627;-81
2022/01/08 04:27:45;;;;;;;;;0.00;0.00;;;;;;;;6297334;22;29487;-81
2022/01/08 04:30:10;;;;;;;;;6.75;1.25;;;;;;;;6270781;22;28332;-81
2022/01/08 04:32:36;;;;;;;;;2.00;2.00;;;;;;;;6298163;22;28378;-81
2022/01/08 04:35:01;;;;;;;;;5.00;1.00;;;;;;;;6299311;22;28452;-81
2022/01/08 04:37:27;;;;;;;;;0.75;0.00;;;;;;;;6270623;22;28438;-81
2022/01/08 04:39:52;;;;;;;;;0.00;0.00;;;;;;;;6297689;22;28863;-81
2022/01/08 04:42:17;;;;;;;;;0.33;0.00;;;;;;;;6269345;22;28370;-81
2022/01/08 04:44:42;;;;;;;;;1.00;0.00;;;;;;;;6297252;22;28323;-81
2022/01/08 04:47:07;;;;;;;;;2.33;0.00;;;;;;;;6298096;22;28331;-81
2022/01/08 04:49:33;;;;;;;;;0.00;0.00;;;;;;;;6270580;22;28396;-80
2022/01/08 04:51:58;;;;;;;;;2.00;0.67;;;;;;;;6297981;22;28159;-81
2022/01/08 04:54:23;;;;;;;;;2.67;0.67;;;;;;;;6270555;22;28428;-81
2022/01/08 04:56:49;;;;;;;;;0.00;0.00;;;;;;;;6270597;22;30965;-81
2022/01/08 04:59:14;;;;;;;;;0.00;0.00;;;;;;;;6270465;22;28453;-81
2022/01/08 05:01:40;;;;;;;;;0.00;0.00;;;;;;;;6298760;22;28287;-81
2022/01/08 05:04:05;;;;;;;;;1.00;0.00;;;;;;;;6298913;22;28223;-81
2022/01/08 05:06:31;;;;;;;;;0.00;0.00;;;;;;;;6299131;22;28227;-81
2022/01/08 05:08:56;;;;;;;;;0.00;0.00;;;;;;;;6270811;22;28289;-80
2022/01/08 05:11:22;;;;;;;;;0.00;0.00;;;;;;;;6299021;22;28328;-81
2022/01/08 05:13:47;;;;;;;;;0.50;0.00;;;;;;;;6298737;22;28203;-81
2022/01/08 05:16:12;;;;;;;;;0.00;0.00;;;;;;;;6298722;22;28450;-81
2022/01/08 05:18:38;;;;;;;;;0.00;0.00;;;;;;;;6298987;22;28243;-81
2022/01/08 05:21:23;;;;;;;;;0.00;0.00;;;;;;;;6299156;22;28163;-81
2022/01/08 05:23:48;;;;;;;;;2.75;0.50;;;;;;;;6269727;22;28556;-81
2022/01/08 05:26:13;;;;;;;;;0.00;0.00;;;;;;;;6299072;22;28181;-81
2022/01/08 05:28:39;;;;;;;;;2.50;0.00;;;;;;;;6299442;22;28238;-81
2022/01/08 05:31:04;;;;;;;;;1.50;0.00;;;;;;;;6298588;22;28477;-80
2022/01/08 05:33:29;;;;;;;;;0.00;0.00;;;;;;;;6298743;22;28373;-81
2022/01/08 05:35:54;;;;;;;;;0.00;0.00;;;;;;;;6270532;22;29893;-81
2022/01/08 05:38:20;;;;;;;;;0.50;0.00;;;;;;;;6270297;22;28625;-81
2022/01/08 05:40:46;;;;;;;;;3.00;0.00;;;;;;;;6297322;22;28387;-81
2022/01/08 05:43:11;;;;;;;;;4.25;1.00;;;;;;;;6298159;22;28473;-81
2022/01/08 05:45:36;;;;;;;;;2.00;0.00;;;;;;;;6297216;22;28453;-81
2022/01/08 05:48:02;;;;;;;;;0.33;0.00;;;;;;;;6269422;22;28327;-81
2022/01/08 05:50:27;;;;;;;;;2.00;1.00;;;;;;;;6270986;22;28434;-81
2022/01/08 05:52:52;;;;;;;;;2.00;0.00;;;;;;;;6270695;22;28375;-81
2022/01/08 05:55:18;;;;;;;;;1.25;0.00;;;;;;;;6298004;22;29331;-81
2022/01/08 05:57:43;;;;;;;;;2.25;1.00;;;;;;;;6269587;22;28563;-81
2022/01/08 06:00:09;;;;;;;;;0.00;0.00;;;;;;;;6297681;22;28314;-80
2022/01/08 06:02:35;;;;;;;;;2.25;0.00;;;;;;;;6298202;22;28520;-80
2022/01/08 06:05:00;;;;;;;;;0.00;0.00;;;;;;;;6270249;22;30724;-81
2022/01/08 06:07:25;;;;;;;;;3.00;0.00;;;;;;;;6298244;22;28356;-81
2022/01/08 06:09:50;;;;;;;;;3.00;0.75;;;;;;;;6269929;22;28244;-81
2022/01/08 06:12:16;;;;;;;;;0.00;0.00;;;;;;;;6298661;22;28272;-81
2022/01/08 06:14:41;;;;;;;;;0.00;0.00;;;;;;;;6269365;22;28399;-82
2022/01/08 06:17:07;;;;;;;;;3.50;0.75;;;;;;;;6270614;22;28624;-82
2022/01/08 06:19:32;;;;;;;;;0.50;0.00;;;;;;;;6270082;22;28540;-81
2022/01/08 06:21:58;;;;;;;;;1.75;0.00;;;;;;;;6271149;22;29482;-81
2022/01/08 06:24:23;;;;;;;;;2.00;1.00;;;;;;;;6298694;22;29290;-81
2022/01/08 06:26:48;;;;;;;;;3.00;1.00;;;;;;;;6270267;22;29168;-81
2022/01/08 06:29:14;;;;;;;;;3.00;1.00;;;;;;;;6321018;22;25632;-81
2022/01/08 06:31:39;;;;;;;;;3.00;1.00;;;;;;;;6321395;22;26281;-81
2022/01/08 06:34:04;;;;;;;;;1.00;0.00;;;;;;;;6279634;22;29533;-81
2022/01/08 06:36:30;;;;;;;;;2.00;1.00;;;;;;;;6290601;22;27676;-81
2022/01/08 06:38:55;;;;;;;;;3.75;0.00;;;;;;;;6296821;22;28338;-81
2022/01/08 06:41:20;;;;;;;;;0.00;0.00;;;;;;;;6289083;22;29477;-81
2022/01/08 06:43:46;;;;;;;;;2.00;0.00;;;;;;;;6323519;22;10128;-81
2022/01/08 06:46:11;;;;;;;;;0.00;0.00;;;;;;;;6304485;22;28429;-81
2022/01/08 06:48:36;;;;;;;;;0.00;0.00;;;;;;;;6297854;22;28342;-81
2022/01/08 06:51:02;;;;;;;;;0.00;0.00;;;;;;;;6298915;22;28496;-81
2022/01/08 06:53:27;;;;;;;;;1.00;1.00;;;;;;;;6299230;22;28425;-81
2022/01/08 06:55:53;;;;;;;;;1.00;1.00;;;;;;;;6299648;22;28453;-81
2022/01/08 06:58:20;;;;;;;;;0.75;0.75;;;;;;;;6299190;22;28461;-81
2022/01/08 07:00:45;;;;;;;;;1.50;1.00;;;;;;;;6299241;22;28327;-80
2022/01/08 07:03:11;;;;;;;;;0.00;0.00;;;;;;;;6305006;22;29058;-81
2022/01/08 07:05:39;;;;;;;;;1.00;1.00;;;;;;;;6293572;22;21342;-81
2022/01/08 07:08:05;;;;;;;;;1.00;0.00;;;;;;;;6291991;22;34953;-81
2022/01/08 07:10:30;;;;;;;;;3.50;0.00;;;;;;;;6319816;22;28378;-80
2022/01/08 07:12:55;;;;;;;;;0.33;0.33;;;;;;;;6270998;22;30571;-81
2022/01/08 07:15:20;;;;;;;;;4.25;1.00;;;;;;;;6299957;22;28251;-81
2022/01/08 07:17:46;;;;;;;;;3.00;0.00;;;;;;;;6270734;22;28359;-81
2022/01/08 07:20:12;;;;;;;;;2.75;1.00;;;;;;;;6271244;22;28771;-81
2022/01/08 07:22:37;;;;;;;;;3.00;1.25;;;;;;;;6297684;22;28275;-81
2022/01/08 07:25:03;;;;;;;;;9.25;1.75;;;;;;;;6271082;22;28466;-81
2022/01/08 07:27:30;;;;;;;;;2.50;1.00;;;;;;;;6299305;22;28353;-81
2022/01/08 07:29:55;;;;;;;;;0.25;0.25;;;;;;;;6299284;22;28165;-81
2022/01/08 07:32:20;;;;;;;;;1.00;1.00;;;;;;;;6297435;22;28314;-81
2022/01/08 07:34:46;;;;;;;;;1.00;1.00;;;;;;;;6298232;22;28354;-81
2022/01/08 07:37:11;;;;;;;;;1.00;1.00;;;;;;;;6299110;22;28271;-81
2022/01/08 07:39:36;;;;;;;;;5.50;1.75;;;;;;;;6298324;22;28556;-81
2022/01/08 07:42:04;;;;;;;;;3.00;1.00;;;;;;;;6298124;22;28345;-85
2022/01/08 07:44:39;;;;;;;;;3.00;1.00;;;;;;;;6298870;22;28434;-85
2022/01/08 07:47:12;;;;;;;;;10.00;1.00;;;;;;;;6271003;22;28399;-84
2022/01/08 07:49:39;;;;;;;;;1.00;1.00;;;;;;;;6298682;22;28264;-84
2022/01/08 07:52:15;;;;;;;;;2.00;1.75;;;;;;;;6297901;22;28522;-84
2022/01/08 07:55:19;;;;;;;;;;;;;;;;;;;;;
2022/01/08 07:57:57;;;;;;;;;1.00;1.00;;;;;;;;6170907;23;55810;-83
2022/01/08 08:03:29;;;;;;;;;0.00;0.00;;;;;;;;6132286;23;28436;-83
2022/01/08 08:06:03;;;;;;;;;7.00;1.25;;;;;;;;6149094;23;28305;-86
2022/01/08 08:40:56;;;;;;;;;11.25;4.00;;;;;;;;6287223;22;28528;-82
2022/01/08 08:46:45;;;;;;;;;4.00;2.25;;;;;;;;6172915;23;29297;-82
2022/01/08 08:59:27;;;;;;;;;;;;;;;;;;;;;
2022/01/08 09:02:23;;;;;;;;;;;;;;;;;;;;;
2022/01/08 09:11:34;;;;;;;;;;;;;;;;;;;;;
2022/01/08 09:36:04;;;;;;;;;6.75;6.75;;;;;;;;6242592;22;28530;-80
2022/01/08 09:38:29;;;;;;;;;7.75;6.00;;;;;;;;6269678;22;44838;-87
2022/01/08 09:40:54;;;;;;;;;7.33;6.00;;;;;;;;6262521;22;44844;-86
2022/01/08 09:43:32;;;;;;;;;;;;;;;;;;;;;
2022/01/08 09:45:58;;;;;;;;;10.25;5.00;;;;;;;;6264903;22;57458;-86
2022/01/08 10:57:49;;;;;;;;;11.50;3.50;;;;;;;;6260044;22;30013;-84
2022/01/08 11:00:19;;;;;;;;;7.25;3.00;;;;;;;;6296772;22;28715;-83
2022/01/08 11:02:47;;;;;;;;;9.25;3.25;;;;;;;;6298139;22;28481;-85
2022/01/08 11:05:21;;;;;;;;;15.50;4.50;;;;;;;;6297903;22;28243;-85
2022/01/08 11:07:51;;;;;;;;;7.75;4.25;;;;;;;;6269537;22;28724;-84
2022/01/08 11:10:19;;;;;;;;;6.50;3.00;;;;;;;;6297895;22;28445;-83
2022/01/08 11:12:51;;;;;;;;;7.50;5.25;;;;;;;;6297527;22;28208;-87
2022/01/08 11:17:47;;;;;;;;;9.25;3.00;;;;;;;;6296833;22;28276;-88
2022/01/08 11:20:20;;;;;;;;;8.00;4.75;;;;;;;;6298113;22;28362;-89
2022/01/08 11:22:47;;;;;;;;;15.75;5.50;;;;;;;;6298159;22;28240;-92
2022/01/08 11:25:15;;;;;;;;;4.25;3.00;;;;;;;;6298887;22;28499;-89
2022/01/08 11:27:54;;;;;;;;;2.00;2.00;;;;;;;;6299512;22;28424;-85
2022/01/08 11:30:21;;;;;;;;;10.50;6.25;;;;;;;;6299210;22;28329;-86
2022/01/08 11:32:47;;;;;;;;;6.25;3.50;;;;;;;;6298317;22;28335;-85
2022/01/08 11:35:14;;;;;;;;;9.25;6.00;;;;;;;;6297731;22;28395;-85
2022/01/08 11:37:45;;;;;;;;;8.00;6.25;;;;;;;;6271080;22;28604;-86
2022/01/08 11:40:10;;;;;;;;;9.00;3.00;;;;;;;;6299307;22;28473;-86
2022/01/08 11:42:38;;;;;;;;;8.00;3.50;;;;;;;;6299393;22;28250;-85
2022/01/08 11:45:05;;;;;;;;;10.00;4.00;;;;;;;;6299417;22;28481;-86
2022/01/08 11:47:31;;;;;;;;;9.50;6.00;;;;;;;;6298823;22;28402;-85
2022/01/08 11:50:01;;;;;;;;;7.25;3.50;;;;;;;;6294507;22;44811;-86
2022/01/08 11:52:26;;;;;;;;;6.00;4.00;;;;;;;;6324497;22;8724;-86
2022/01/08 11:54:52;;;;;;;;;7.00;3.00;;;;;;;;6302820;22;28387;-85
2022/01/08 11:57:22;;;;;;;;;2.00;2.00;;;;;;;;6299130;22;28343;-86
2022/01/08 11:59:48;;;;;;;;;6.50;3.00;;;;;;;;6298552;22;28966;-85
2022/01/08 12:02:14;;;;;;;;;4.00;2.75;;;;;;;;6270963;22;29469;-85
2022/01/08 12:04:41;;;;;;;;;10.00;3.00;;;;;;;;6299140;22;28394;-86
2022/01/08 12:07:34;;;;;;;;;4.00;3.75;;;;;;;;6271356;22;28207;-86
2022/01/08 12:10:02;;;;;;;;;12.25;4.00;;;;;;;;6252673;22;28548;-86
2022/01/08 12:12:59;;;;;;;;;6.50;3.25;;;;;;;;6299053;22;28509;-86
2022/01/08 12:15:40;;;;;;;;;7.50;4.00;;;;;;;;6274316;22;28343;-86
2022/01/08 12:18:06;;;;;;;;;6.75;3.00;;;;;;;;6298907;22;28233;-86
2022/01/08 12:20:48;;;;;;;;;8.75;7.75;;;;;;;;6299220;22;28306;-86
2022/01/08 12:23:31;;;;;;;;;16.00;6.75;;;;;;;;6299096;22;28335;-86
2022/01/08 12:26:04;;;;;;;;;11.50;7.50;;;;;;;;6299231;22;28415;-86
2022/01/08 12:28:41;;;;;;;;;8.75;4.00;;;;;;;;6300907;22;28393;-85
2022/01/08 12:31:28;;;;;;;;;6.00;5.50;;;;;;;;6270855;22;28590;-86
2022/01/08 12:34:28;;;;;;;;;8.00;3.00;;;;;;;;6270818;22;29222;-85
2022/01/08 12:36:54;;;;;;;;;9.75;3.75;;;;;;;;6231155;22;28463;-86
2022/01/08 12:39:38;;;;;;;;;16.25;4.00;;;;;;;;6298840;22;28500;-86
2022/01/08 12:42:19;;;;;;;;;9.25;6.00;;;;;;;;6299296;22;28549;-85
2022/01/08 12:44:55;;;;;;;;;6.00;2.75;;;;;;;;6271557;22;28480;-85
2022/01/08 12:47:36;;;;;;;;;12.00;6.25;;;;;;;;6299151;22;28212;-85
2022/01/08 12:50:20;;;;;;;;;6.00;4.00;;;;;;;;6299725;22;28417;-85
2022/01/08 12:53:04;;;;;;;;;10.75;6.50;;;;;;;;6298759;22;28669;-86
2022/01/08 12:55:30;;;;;;;;;6.00;4.50;;;;;;;;6299154;22;28407;-86
2022/01/08 12:57:56;;;;;;;;;12.00;8.00;;;;;;;;6298499;22;28585;-86
2022/01/08 13:00:23;;;;;;;;;16.00;11.75;;;;;;;;6270957;22;28434;-85
2022/01/08 13:02:48;;;;;;;;;10.00;8.00;;;;;;;;6270665;22;29739;-86
2022/01/08 13:05:14;;;;;;;;;18.25;11.00;;;;;;;;6270945;22;28262;-86
2022/01/08 13:07:48;;;;;;;;;7.00;5.50;;;;;;;;6298944;22;28239;-85
2022/01/08 13:10:14;;;;;;;;;9.50;3.75;;;;;;;;6299038;22;28389;-86
2022/01/08 13:12:39;;;;;;;;;16.00;12.25;;;;;;;;6270845;22;29807;-85
2022/01/08 13:15:05;;;;;;;;;17.00;7.33;;;;;;;;6299030;22;28366;-85
2022/01/08 13:17:30;;;;;;;;;12.75;6.50;;;;;;;;6270355;22;28473;-86
2022/01/08 13:20:06;;;;;;;;;8.25;6.75;;;;;;;;6271057;22;29027;-85
2022/01/08 13:22:32;;;;;;;;;9.50;7.00;;;;;;;;6299064;22;28458;-84
2022/01/08 13:24:57;;;;;;;;;4.50;2.25;;;;;;;;6298920;22;28238;-84
2022/01/08 13:27:23;;;;;;;;;23.75;12.00;;;;;;;;6298857;22;28177;-84
2022/01/08 13:29:49;;;;;;;;;16.25;7.50;;;;;;;;6270790;22;28670;-85
2022/01/08 13:32:19;;;;;;;;;14.25;6.75;;;;;;;;6298644;22;29454;-84
2022/01/08 13:34:45;;;;;;;;;11.00;4.00;;;;;;;;6299556;22;28236;-85
2022/01/08 13:37:11;;;;;;;;;3.00;3.00;;;;;;;;6299661;22;28373;-84
2022/01/08 13:39:38;;;;;;;;;11.00;6.25;;;;;;;;6299643;22;28180;-85
2022/01/08 13:42:10;;;;;;;;;8.25;4.00;;;;;;;;6271578;22;28648;-85
2022/01/08 13:44:35;;;;;;;;;8.75;4.50;;;;;;;;6299871;22;28378;-85
2022/01/08 13:47:01;;;;;;;;;6.75;4.00;;;;;;;;6299672;22;28460;-84
2022/01/08 13:49:26;;;;;;;;;12.33;4.67;;;;;;;;6270902;22;28357;-84
2022/01/08 13:51:51;;;;;;;;;11.25;3.00;;;;;;;;6322443;22;28212;-85
2022/01/08 13:54:16;;;;;;;;;6.75;4.00;;;;;;;;6295755;22;8764;-85
2022/01/08 13:56:42;;;;;;;;;7.00;2.33;;;;;;;;6295936;22;8845;-85
2022/01/08 13:59:12;;;;;;;;;7.25;2.75;;;;;;;;6323445;22;10018;-85
2022/01/08 14:01:45;;;;;;;;;14.50;6.25;;;;;;;;6322003;22;27724;-85
2022/01/08 14:04:11;;;;;;;;;8.25;3.50;;;;;;;;6299182;22;28630;-85
2022/01/08 14:06:37;;;;;;;;;7.25;3.50;;;;;;;;6270757;22;28319;-85
2022/01/08 14:09:03;;;;;;;;;4.50;2.25;;;;;;;;6298817;22;28350;-85
2022/01/08 14:11:29;;;;;;;;;7.00;3.00;;;;;;;;6270804;22;29518;-86
2022/01/08 14:13:56;;;;;;;;;6.50;4.25;;;;;;;;6270047;22;45440;-86
2022/01/08 14:24:33;;;;;;;;;;;;;;;;;;756785;22;279080378;-85
2022/01/08 14:32:49;;;;;;;;;2.00;2.00;;;;;;;;2;234068282;234068282;-86
2022/01/08 14:41:54;;;;;;;;;2.50;2.50;;;;;;;;2;279077106;279077106;-85
2022/01/08 14:50:14;;;;;;;;;0.00;0.00;;;;;;;;2;234064584;234064584;-86
2022/01/08 14:59:14;;;;;;;;;4.50;0.50;;;;;;;;2;279080367;279080367;-86
2022/01/08 15:07:29;;;;;;;;;14.00;2.00;;;;;;;;2;234066151;234066151;-85
2022/01/08 15:16:30;;;;;;;;;0.00;0.00;;;;;;;;2;279077906;279077906;-86
2022/01/08 15:24:45;;;;;;;;;7.50;0.50;;;;;;;;2;234068386;234068386;-87
2022/01/08 15:33:46;;;;;;;;;3.00;3.00;;;;;;;;2;279069991;279069991;-86
2022/01/08 15:42:01;;;;;;;;;1.00;1.00;;;;;;;;2;234054147;234054147;-85
2022/01/08 15:51:01;;;;;;;;;1.00;1.00;;;;;;;;2;279080230;279080230;-87
2022/01/08 15:59:17;;;;;;;;;1.00;1.00;;;;;;;;2;234065387;234065387;-85
2022/01/08 16:08:20;;;;;;;;;3.00;3.00;;;;;;;;2;279077681;279077681;-85
2022/01/08 16:16:35;;;;;;;;;0.00;0.00;;;;;;;;2;234065190;234065190;-85
2022/01/08 16:25:36;;;;;;;;;12.00;0.00;;;;;;;;2;279080093;279080093;-85
2022/01/08 16:33:52;;;;;;;;;0.00;0.00;;;;;;;;2;234066582;234066582;-85
2022/01/08 16:42:53;;;;;;;;;0.50;0.50;;;;;;;;2;279081859;279081859;-85
2022/01/08 16:51:08;;;;;;;;;0.00;0.00;;;;;;;;2;234069761;234069761;-85
2022/01/08 17:00:09;;;;;;;;;1.00;1.00;;;;;;;;2;279082319;279082319;-88
2022/01/08 17:08:25;;;;;;;;;2.00;2.00;;;;;;;;2;234068564;234068564;-86
2022/01/08 17:17:26;;;;;;;;;3.50;3.50;;;;;;;;2;279079922;279079922;-87
2022/01/08 17:25:42;;;;;;;;;1.50;1.50;;;;;;;;2;234067666;234067666;-88
2022/01/08 17:34:42;;;;;;;;;3.00;3.00;;;;;;;;2;279075735;279075735;-88
2022/01/08 17:42:58;;;;;;;;;0.00;0.00;;;;;;;;2;234067413;234067413;-89
2022/01/08 17:52:03;;;;;;;;;11.00;0.00;;;;;;;;2;279078742;279078742;-89
2022/01/08 18:00:22;;;;;;;;;0.50;0.50;;;;;;;;2;234068165;234068165;-88
2022/01/08 18:09:25;;;;;;;;;0.50;0.50;;;;;;;;2;279080237;279080237;-88
2022/01/08 18:17:43;;;;;;;;;0.00;0.00;;;;;;;;2;234066141;234066141;-89
2022/01/08 18:26:44;;;;;;;;;2.50;2.50;;;;;;;;2;279079594;279079594;-89
2022/01/08 18:34:59;;;;;;;;;11.50;0.00;;;;;;;;2;234065858;234065858;-89
2022/01/08 18:42:17;;;;;;;;;0.00;0.00;;;;;;;;2;279078641;279078641;-88
2022/01/08 18:48:49;;;;;;;;;1.00;1.00;;;;;;;;3;122276747;130552398;-88
2022/01/08 18:55:09;;;;;;;;;0.50;0.50;;;;;;;;3;117063496;130555219;-89
2022/01/08 19:01:42;;;;;;;;;4.00;0.00;;;;;;;;3;130564198;142060824;-89
2022/01/08 19:06:35;;;;;;;;;;;;;;;;;;2;153499858;153499858;-88
2022/01/08 19:12:54;;;;;;;;;2.00;2.00;;;;;;;;3;117061478;130553663;-88
2022/01/08 19:19:21;;;;;;;;;0.00;0.00;;;;;;;;3;130563262;139559661;-89
2022/01/08 19:26:04;;;;;;;;;0.00;0.00;;;;;;;;3;130555614;139567498;-88
2022/01/08 19:29:01;;;;;;;;;;;;;;;;;;429460;22;109778354;-89
2022/01/08 19:33:37;;;;;;;;;0.00;0.00;;;;;;;;1208558;22;124176806;-88
2022/01/08 19:39:04;;;;;;;;;2.00;2.00;;;;;;;;3;126578957;133025050;-87
2022/01/08 19:41:30;;;;;;;;;5.50;4.00;;;;;;;;2865076;22;43177856;-87
2022/01/08 19:43:55;;;;;;;;;9.00;3.00;;;;;;;;5190480;22;11391846;-87
2022/01/08 19:46:22;;;;;;;;;4.25;3.50;;;;;;;;4902918;22;31809542;-88
2022/01/08 19:48:47;;;;;;;;;7.50;5.00;;;;;;;;6298730;22;28337;-86
2022/01/08 19:51:14;;;;;;;;;7.00;5.33;;;;;;;;6271679;22;28735;-87
2022/01/08 19:56:17;;;;;;;;;;;;;;;;;;4987022;22;129449353;-86
2022/01/08 19:58:43;;;;;;;;;6.50;4.50;;;;;;;;6148405;22;1681301;-87
2022/01/08 20:01:08;;;;;;;;;6.25;3.50;;;;;;;;6292177;22;184701;-87
2022/01/08 20:03:34;;;;;;;;;5.25;1.00;;;;;;;;6299126;22;28273;-87
2022/01/08 20:05:59;;;;;;;;;4.33;3.00;;;;;;;;6299149;22;28536;-85
2022/01/08 20:08:25;;;;;;;;;6.00;4.25;;;;;;;;6298825;22;28364;-86
2022/01/08 20:10:50;;;;;;;;;4.50;3.00;;;;;;;;6162030;22;389362;-85
2022/01/08 20:13:19;;;;;;;;;1.75;1.25;;;;;;;;3443863;22;62932191;-86
2022/01/08 20:15:45;;;;;;;;;8.00;3.00;;;;;;;;6298874;22;28399;-86
2022/01/08 20:18:10;;;;;;;;;2.00;2.00;;;;;;;;6299018;22;28569;-85
2022/01/08 20:20:38;;;;;;;;;7.75;1.50;;;;;;;;6270809;22;28896;-86
2022/01/08 20:23:03;;;;;;;;;2.75;1.50;;;;;;;;6045033;22;5218711;-86
2022/01/08 20:25:28;;;;;;;;;2.75;1.00;;;;;;;;6270240;22;49548;-86
2022/01/08 20:28:43;;;;;;;;;;;;;;;;;;1080782;22;121972981;-86
2022/01/08 20:31:08;;;;;;;;;4.67;2.00;;;;;;;;6266686;22;28316;-86
2022/01/08 20:33:34;;;;;;;;;6.25;1.75;;;;;;;;6270968;22;28668;-86
2022/01/08 20:35:59;;;;;;;;;2.25;1.00;;;;;;;;6298468;22;28145;-85
2022/01/08 20:38:25;;;;;;;;;3.00;1.00;;;;;;;;6270541;22;28277;-86
2022/01/08 20:40:50;;;;;;;;;2.00;2.00;;;;;;;;6270766;22;28634;-86
2022/01/08 20:43:18;;;;;;;;;3.00;1.50;;;;;;;;6271019;22;29000;-85
2022/01/08 20:45:44;;;;;;;;;1.75;1.50;;;;;;;;6297937;22;28653;-86
2022/01/08 20:48:09;;;;;;;;;3.75;1.50;;;;;;;;6270677;22;28828;-86
2022/01/08 20:50:35;;;;;;;;;2.50;1.50;;;;;;;;6289929;22;78777;-85
2022/01/08 20:53:01;;;;;;;;;2.25;1.00;;;;;;;;6291472;22;75401;-86
2022/01/08 20:55:26;;;;;;;;;2.00;2.00;;;;;;;;6264469;22;114541;-86
2022/01/08 20:57:55;;;;;;;;;4.25;1.00;;;;;;;;6263378;22;110527;-85
2022/01/08 21:00:24;;;;;;;;;2.50;1.00;;;;;;;;6299178;22;28334;-86
2022/01/08 21:02:49;;;;;;;;;8.25;4.00;;;;;;;;6270881;22;30130;-86
2022/01/08 21:05:14;;;;;;;;;1.00;0.00;;;;;;;;6298889;22;28514;-86
2022/01/08 21:07:40;;;;;;;;;1.67;1.00;;;;;;;;5885594;22;4277541;-86
2022/01/08 21:12:55;;;;;;;;;;;;;;;;;;1956217;22;139559222;-87
2022/01/08 21:19:23;;;;;;;;;0.50;0.50;;;;;;;;3;117048655;130554574;-87
2022/01/08 21:25:40;;;;;;;;;0.50;0.50;;;;;;;;3;115631376;130373958;-87